• Join FlightAware (Why Join?)
  • Login
  • US Flag 
08:28AM EDT


 

Airport Tracker/Info


-or-


 

Live Flight TrackerFlight Track Log ✈ AAY860 ✈ 25-Jun-2014 ✈ KPIE - KLEX

Flight Track Log - Related Links

Times and Time Zones

All times are in EDT time to prevent confusion due to time zone crossing. See the AAY860 flight status page for this flight to view local times or setup timezone preferences in your user account.

Time Position Orientation Groundspeed Altitude Reporting Facility
EDT Latitude Longitude Course Direction KTS MPH feet Rate Location/Type
06:29AM 27.9503 -82.6881 27° Northeast 182 209 36,000  Level Miami Center
06:30AM 27.9958 -82.6617 27° Northeast 207 238 3,100 -15,180 Descending Miami Center
06:31AM 28.0689 -82.6708 354° North 265 305 5,500 2,820 Climbing Miami Center
06:32AM 28.1433 -82.6892 348° North 275 316 8,800 2,580 Climbing Miami Center
06:33AM 28.2214 -82.7050 350° North 277 319 10,800 1,740 Climbing Miami Center
06:34AM 28.3136 -82.7292 347° North 332 382 12,400 1,980 Climbing Miami Center
06:35AM 28.4128 -82.7500 350° North 355 409 14,800 2,340 Climbing Miami Center
06:36AM 28.5122 -82.7731 348° North 362 417 17,200 1,980 Climbing Miami Center
06:37AM 28.6228 -82.8136 342° North 380 437 18,900 1,680 Climbing Miami Center
06:38AM 28.7278 -82.8547 341° North 391 450 20,700 1,680 Climbing Miami Center
06:39AM 28.8353 -82.8944 342° North 404 465 22,400 1,500 Climbing Miami Center
06:40AM 28.9464 -82.9369 341° North 418 481 23,800 1,380 Climbing Miami Center
06:41AM 29.0600 -82.9800 342° North 426 490 25,200 1,380 Climbing Miami Center
06:42AM 29.1758 -83.0267 341° North 432 497 26,600 1,380 Climbing Miami Center
06:44AM 29.2928 -83.0708 342° North 437 503 28,000 1,140 Climbing Miami Center
06:45AM 29.4103 -83.1172 341° North 443 510 29,000 960 Climbing Miami Center
06:46AM 29.5319 -83.1644 341° North 454 522 30,000 1,140 Climbing Miami Center
06:47AM 29.6542 -83.2125 341° North 454 522 31,400 1,260 Climbing Miami Center
06:48AM 29.7764 -83.2608 341° North 454 522 32,600 1,080 Climbing Miami Center
06:49AM 29.8978 -83.3078 341° North 454 522 33,600 1,140 Climbing Miami Center
06:50AM 30.0189 -83.3550 341° North 455 524 35,000 1,080 Climbing Miami Center
06:51AM 30.1389 -83.4022 341° North 455 524 35,800 480 Climbing Miami Center
06:52AM 30.2578 -83.4500 341° North 454 522 36,000 60 Climbing Miami Center
06:53AM 30.4050 -83.5067 342° North 445 512 36,000  Level Jacksonville Center
06:54AM 30.5236 -83.5581 340° North 445 512 36,000  Level Jacksonville Center
06:55AM 30.6278 -83.5975 342° North 440 506 36,000  Level Jacksonville Center
06:56AM 30.7486 -83.6444 342° North 445 512 36,000  Level Jacksonville Center
06:57AM 30.8675 -83.6936 340° North 445 512 36,000  Level Jacksonville Center
06:58AM 30.9861 -83.7431 340° North 445 512 36,000  Level Jacksonville Center
06:59AM 31.1069 -83.7903 342° North 445 512 36,000  Level Jacksonville Center
07:00AM 31.2358 -83.8425 341° North 445 512 36,000  Level Jacksonville Center
07:01AM 31.3547 -83.8925 340° North 445 512 36,000  Level Jacksonville Center
07:02AM 31.4731 -83.9425 340° North 445 512 36,000  Level Jacksonville Center
07:03AM 31.5714 -83.9731 345° North 443 510 36,000  Level Atlanta Center
07:04AM 31.6964 -84.0022 349° North 443 510 36,000  Level Atlanta Center
07:05AM 31.8258 -84.0292 350° North 455 524 36,000  Level Atlanta Center
07:06AM 31.9492 -84.0558 350° North 455 524 36,000  Level Atlanta Center
07:07AM 32.0847 -84.0856 349° North 455 524 36,000  Level Atlanta Center
07:08AM 32.2100 -84.1125 350° North 450 518 36,000  Level Atlanta Center
07:09AM 32.3372 -84.1422 349° North 450 518 36,000  Level Atlanta Center
07:10AM 32.4603 -84.1692 350° North 450 518 36,000  Level Atlanta Center
07:11AM 32.5856 -84.1992 349° North 450 518 36,000  Level Atlanta Center
07:12AM 32.7108 -84.2264 350° North 450 518 36,000  Level Atlanta Center
07:13AM 32.8214 -84.2514 349° North 450 518 36,000  Level Atlanta Center
07:14AM 32.9486 -84.2814 349° North 450 518 36,000  Level Atlanta Center
07:15AM 33.0758 -84.3117 349° North 450 518 36,000  Level Atlanta Center
07:16AM 33.1989 -84.3392 349° North 455 524 36,000  Level Atlanta Center
07:17AM 33.3264 -84.3669 350° North 455 524 36,000  Level Atlanta Center
07:18AM 33.4514 -84.3972 349° North 455 524 36,000  Level Atlanta Center
07:19AM 33.5786 -84.4203 351° North 455 524 36,000  Level Atlanta Center
07:20AM 33.7186 -84.4158 North 455 524 36,000  Level Atlanta Center
07:21AM 33.8542 -84.3864 10° North 467 537 36,000  Level Atlanta Center
07:22AM 33.9839 -84.3569 11° North 472 543 36,000  Level Atlanta Center
07:23AM 34.1092 -84.3272 11° North 466 536 36,000  Level Atlanta Center
07:24AM 34.2447 -84.2925 12° North 473 544 36,000  Level Atlanta Center
07:25AM 34.3722 -84.2728 North 473 544 36,000  Level Atlanta Center
07:26AM 34.4994 -84.2833 356° North 460 529 36,000  Level Atlanta Center
07:27AM 34.6289 -84.2911 357° North 460 529 36,000  Level Atlanta Center
07:28AM 34.7561 -84.2967 358° North 460 529 36,000  Level Atlanta Center
07:29AM 34.8814 -84.3072 356° North 455 524 36,000  Level Atlanta Center
07:30AM 34.9919 -84.3100 359° North 450 518 36,000  Level Atlanta Center
07:31AM 35.1172 -84.3181 357° North 445 512 36,000  Level Atlanta Center
07:32AM 35.2403 -84.3236 358° North 445 512 36,000  Level Atlanta Center
07:33AM 35.3633 -84.3317 357° North 445 512 36,000  Level Atlanta Center
07:34AM 35.4864 -84.3347 359° North 445 512 36,000 -60 Level Atlanta Center
07:35AM 35.6136 -84.3428 357° North 445 512 35,900 -300 Descending Atlanta Center
07:36AM 35.7408 -84.3483 358° North 445 512 35,500 -600 Descending Atlanta Center
07:37AM 35.8639 -84.3539 358° North 445 512 34,800 -900 Descending Atlanta Center
07:38AM 35.9869 -84.3619 357° North 440 506 33,800 -1,200 Descending Atlanta Center
07:39AM 36.1100 -84.3703 357° North 440 506 32,500 -1,740 Descending Atlanta Center
07:40AM 36.2542 -84.3767 358° North 440 506 30,200 -1,740 Descending Indianapolis Center
07:41AM 36.3742 -84.3825 358° North 438 504 28,800 -1,140 Descending Indianapolis Center
07:42AM 36.4917 -84.3903 357° North 430 495 27,900 -1,020 Descending Indianapolis Center
07:43AM 36.6211 -84.3961 358° North 423 487 26,800 -1,080 Descending Indianapolis Center
07:44AM 36.7386 -84.4042 357° North 422 486 25,800 -1,200 Descending Indianapolis Center
07:45AM 36.8533 -84.4094 358° North 417 480 24,400 -2,280 Descending Indianapolis Center
07:46AM 36.9683 -84.4150 358° North 416 479 21,100 -3,480 Descending Indianapolis Center
07:47AM 37.0769 -84.4222 357° North 401 461 17,300 -3,240 Descending Indianapolis Center
07:48AM 37.1847 -84.4272 358° North 391 450 14,500 -2,280 Descending Indianapolis Center
07:49AM 37.2867 -84.4336 357° North 373 429 12,700 -1,740 Descending Indianapolis Center
07:50AM 37.4003 -84.4406 357° North 356 410 11,000 -1,260 Descending Indianapolis Center
07:51AM 37.4878 -84.4431 359° North 317 365 10,200 -1,080 Descending Indianapolis Center
07:52AM 37.5689 -84.4467 358° North 293 337 8,800 -1,500 Descending Indianapolis Center
07:53AM 37.6444 -84.4492 358° North 278 320 7,200 -1,560 Descending Indianapolis Center
07:54AM 37.7208 -84.4486 360° North 277 319 5,600 -1,140 Descending Indianapolis Center
07:55AM 37.7936 -84.4506 359° North 266 306 4,900 -780 Descending Indianapolis Center
07:56AM 37.8636 -84.4519 359° North 257 296 4,100 -480 Descending Indianapolis Center
07:57AM 37.9397 -84.4522 360° North 243 280 4,000 -60 Descending Indianapolis Center
07:58AM 37.9989 -84.4400 North 232 267 4,000  Level Indianapolis Center
07:59AM 38.0589 -84.4150 18° North 231 266 4,100  Climbing Indianapolis Center
08:00AM 38.1169 -84.3883 20° North 230 265 4,100 -420 Level Indianapolis Center
08:01AM 38.1581 -84.4142 334° Northwest 192 221 3,300 -420 Descending Indianapolis Center
08:02AM 38.1489 -84.4703 258° West 180 207 3,300 -180 Level Indianapolis Center
08:03AM 38.1206 -84.5128 230° Southwest 169 194 3,000 -540 Descending Indianapolis Center
08:04AM 38.0853 -84.5489 219° Southwest 154 177 2,200 -600 Descending Indianapolis Center
08:05AM 38.0567 -84.5831 223° Southwest 148 170 1,800 -420 Descending Indianapolis Center